createdAt,value
2023-02-08T00:00:10.706Z,4.63
2023-02-08T00:02:37.677Z,3.80
2023-02-08T00:05:05.387Z,4.53
2023-02-08T00:07:32.309Z,4.83
2023-02-08T00:09:59.085Z,4.13
2023-02-08T00:12:25.936Z,4.00
2023-02-08T00:14:52.780Z,4.80
2023-02-08T00:17:20.973Z,4.50
2023-02-08T00:19:47.842Z,4.03
2023-02-08T00:22:14.699Z,4.40
2023-02-08T00:24:41.627Z,4.93
2023-02-08T00:27:08.601Z,4.43
2023-02-08T00:29:35.575Z,4.37
2023-02-08T00:32:02.455Z,3.87
2023-02-08T00:34:30.774Z,3.70
2023-02-08T00:36:57.552Z,3.83
2023-02-08T00:39:24.575Z,3.60
2023-02-08T00:41:51.482Z,3.77
2023-02-08T00:44:18.792Z,3.83
2023-02-08T00:46:45.657Z,3.83
2023-02-08T00:49:12.584Z,4.13
2023-02-08T00:51:40.749Z,4.20
2023-02-08T00:54:12.449Z,3.80
2023-02-08T00:56:39.309Z,3.17
2023-02-08T00:59:06.153Z,4.20
2023-02-08T01:01:33.479Z,3.80
2023-02-08T01:04:00.293Z,5.00
2023-02-08T01:06:27.764Z,4.10
2023-02-08T01:08:59.125Z,5.47
2023-02-08T01:11:26.891Z,4.50
2023-02-08T01:13:55.789Z,4.90
2023-02-08T01:16:24.605Z,5.87
2023-02-08T01:18:54.572Z,5.07
2023-02-08T01:21:23.133Z,4.67
2023-02-08T01:23:50.294Z,5.10
2023-02-08T01:26:19.829Z,5.90
2023-02-08T01:28:47.165Z,5.27
2023-02-08T01:31:15.597Z,3.80
2023-02-08T01:33:43.033Z,4.83
2023-02-08T01:36:10.581Z,3.67
2023-02-08T01:38:38.236Z,3.50
2023-02-08T01:41:07.147Z,4.30
2023-02-08T01:43:59.769Z,4.47
2023-02-08T01:46:26.631Z,4.27
2023-02-08T01:48:54.790Z,4.80
2023-02-08T01:51:25.351Z,4.07
2023-02-08T01:53:55.473Z,4.57
2023-02-08T01:56:27.193Z,4.43
2023-02-08T01:59:00.272Z,4.07
2023-02-08T02:01:28.918Z,4.43
2023-02-08T02:03:55.997Z,3.90
2023-02-08T02:06:36.989Z,4.80
2023-02-08T02:09:13.663Z,4.20
2023-02-08T02:11:40.849Z,4.30
2023-02-08T02:14:10.020Z,3.80
2023-02-08T02:16:37.318Z,4.53
2023-02-08T02:19:08.003Z,4.20
2023-02-08T02:21:45.909Z,3.70
2023-02-08T02:24:38.056Z,4.03
2023-02-08T02:27:27.715Z,3.97
2023-02-08T02:30:19.437Z,4.00
2023-02-08T02:33:00.851Z,3.63
2023-02-08T02:35:36.498Z,3.60
2023-02-08T02:38:10.004Z,3.47
2023-02-08T02:40:44.054Z,3.20
2023-02-08T02:43:36.844Z,3.10
2023-02-08T02:46:08.953Z,3.90
2023-02-08T02:48:42.697Z,3.80
2023-02-08T02:51:12.330Z,3.20
2023-02-08T02:53:48.283Z,3.70
2023-02-08T02:56:18.896Z,4.07
2023-02-08T02:58:46.470Z,3.37
2023-02-08T03:01:13.563Z,3.37
2023-02-08T03:03:41.927Z,3.80
2023-02-08T03:06:14.739Z,3.20
2023-02-08T03:09:05.363Z,3.30
2023-02-08T03:11:36.693Z,3.10
2023-02-08T03:14:21.103Z,3.20
2023-02-08T03:17:09.607Z,3.87
2023-02-08T03:19:43.111Z,3.30
2023-02-08T03:22:14.820Z,3.40
2023-02-08T03:24:52.058Z,3.60
2023-02-08T03:27:27.770Z,3.63
2023-02-08T03:30:01.377Z,3.70
2023-02-08T03:32:39.253Z,3.10
2023-02-08T03:35:11.603Z,3.40
2023-02-08T03:37:43.907Z,3.70
2023-02-08T03:40:16.423Z,3.67
2023-02-08T03:42:44.487Z,3.87
2023-02-08T03:45:16.795Z,3.67
2023-02-08T03:47:45.837Z,3.40
2023-02-08T03:50:19.838Z,3.20
2023-02-08T03:52:48.334Z,4.00
2023-02-08T03:55:18.298Z,3.30
2023-02-08T03:57:49.701Z,3.67
2023-02-08T04:00:18.284Z,3.90
2023-02-08T04:02:59.292Z,3.93
2023-02-08T04:05:28.364Z,3.50
2023-02-08T04:07:55.293Z,4.10
2023-02-08T04:10:22.125Z,3.50
2023-02-08T04:12:49.381Z,3.50
2023-02-08T04:15:16.908Z,3.57
2023-02-08T04:17:43.883Z,4.10
2023-02-08T04:20:11.384Z,3.47
2023-02-08T04:22:39.928Z,3.60
2023-02-08T04:25:07.085Z,3.17
2023-02-08T04:27:34.009Z,3.60
2023-02-08T04:30:00.907Z,3.40
2023-02-08T04:32:27.746Z,4.00
2023-02-08T04:34:54.724Z,3.53
2023-02-08T04:37:21.632Z,3.67
2023-02-08T04:39:49.832Z,3.70
2023-02-08T04:42:16.683Z,4.33
2023-02-08T04:44:43.563Z,3.20
2023-02-08T04:47:10.516Z,3.57
2023-02-08T04:49:37.397Z,4.17
2023-02-08T04:52:04.871Z,3.63
2023-02-08T04:54:31.732Z,4.20
2023-02-08T04:57:00.004Z,4.07
2023-02-08T04:59:27.084Z,3.50
2023-02-08T05:01:53.987Z,4.13
2023-02-08T05:04:20.977Z,3.47
2023-02-08T05:06:48.666Z,3.33
2023-02-08T05:09:15.569Z,4.07
2023-02-08T05:11:42.503Z,4.07
2023-02-08T05:14:10.812Z,4.30
2023-02-08T05:16:37.667Z,3.77
2023-02-08T05:19:04.468Z,4.40
2023-02-08T05:21:31.411Z,3.97
2023-02-08T05:23:58.348Z,3.30
2023-02-08T05:26:25.144Z,3.87
2023-02-08T05:28:51.967Z,3.73
2023-02-08T05:31:23.263Z,3.47
2023-02-08T05:33:50.876Z,4.07
2023-02-08T05:36:18.360Z,4.00
2023-02-08T05:38:45.654Z,4.03
2023-02-08T05:41:12.600Z,3.47
2023-02-08T05:43:39.368Z,3.77
2023-02-08T05:46:06.262Z,3.80
2023-02-08T05:48:34.848Z,4.30
2023-02-08T05:51:01.770Z,4.20
2023-02-08T05:53:29.598Z,4.07
2023-02-08T05:55:57.309Z,4.10
2023-02-08T05:58:25.387Z,4.70
2023-02-08T06:00:53.412Z,4.57
2023-02-08T06:03:20.288Z,5.27
2023-02-08T06:05:48.640Z,4.37
2023-02-08T06:08:15.685Z,4.50
2023-02-08T06:10:43.258Z,4.27
2023-02-08T06:13:10.141Z,4.77
2023-02-08T06:15:37.074Z,4.37
2023-02-08T06:18:04.046Z,4.80
2023-02-08T06:20:30.948Z,4.87
2023-02-08T06:22:59.196Z,4.60
2023-02-08T06:25:26.097Z,4.87
2023-02-08T06:27:52.983Z,4.50
2023-02-08T06:30:20.206Z,4.77
2023-02-08T06:32:47.072Z,5.10
2023-02-08T06:35:14.188Z,4.97
2023-02-08T06:37:41.293Z,5.03
2023-02-08T06:40:10.315Z,4.77
2023-02-08T06:42:37.437Z,5.30
2023-02-08T06:45:04.844Z,4.97
2023-02-08T06:47:31.830Z,4.80
2023-02-08T06:49:58.637Z,5.17
2023-02-08T06:52:25.516Z,4.97
2023-02-08T06:54:52.396Z,5.07
2023-02-08T06:57:20.568Z,4.57
2023-02-08T06:59:47.442Z,5.63
2023-02-08T07:02:15.983Z,4.90
2023-02-08T07:04:43.736Z,5.70
2023-02-08T07:07:12.107Z,5.50
2023-02-08T07:09:39.233Z,4.90
2023-02-08T07:12:06.617Z,4.80
2023-02-08T07:14:36.286Z,4.80
2023-02-08T07:17:03.595Z,4.80
2023-02-08T07:19:31.044Z,5.20
2023-02-08T07:22:03.157Z,5.50
2023-02-08T07:24:30.148Z,5.20
2023-02-08T07:26:57.057Z,4.90
2023-02-08T07:29:23.969Z,4.87
2023-02-08T07:31:52.226Z,5.10
2023-02-08T07:34:21.990Z,5.57
2023-02-08T07:36:49.410Z,4.97
2023-02-08T07:39:16.478Z,4.67
2023-02-08T07:41:43.409Z,4.90
2023-02-08T07:44:10.221Z,5.00
2023-02-08T07:46:37.094Z,5.47
2023-02-08T07:49:05.310Z,5.60
2023-02-08T07:51:32.225Z,5.03
2023-02-08T07:53:59.139Z,5.03
2023-02-08T07:56:25.991Z,5.77
2023-02-08T07:58:52.890Z,5.47
2023-02-08T08:01:22.623Z,5.20
2023-02-08T08:03:50.502Z,5.77
2023-02-08T08:06:19.296Z,5.30
2023-02-08T08:08:47.640Z,5.47
2023-02-08T08:11:15.217Z,5.63
2023-02-08T08:13:42.157Z,5.37
2023-02-08T08:16:09.464Z,5.53
2023-02-08T08:18:36.383Z,5.40
2023-02-08T08:21:03.262Z,5.17
2023-02-08T08:23:33.149Z,12.77
2023-02-08T08:26:00.326Z,5.70
2023-02-08T08:28:27.762Z,6.03
2023-02-08T08:30:54.929Z,5.87
2023-02-08T08:33:21.985Z,5.17
2023-02-08T08:35:48.949Z,5.43
2023-02-08T08:38:15.963Z,6.03
2023-02-08T08:40:44.198Z,5.97
2023-02-08T08:45:46.548Z,5.87
2023-02-08T08:48:13.764Z,5.50
2023-02-08T08:50:43.200Z,5.70
2023-02-08T08:53:10.252Z,5.57
2023-02-08T08:55:37.187Z,5.97
2023-02-08T08:58:05.475Z,5.90
2023-02-08T09:00:32.382Z,6.33
2023-02-08T09:02:59.358Z,6.30
2023-02-08T09:05:26.388Z,6.75
2023-02-08T09:07:53.341Z,6.07
2023-02-08T09:10:20.272Z,6.50
2023-02-08T09:12:47.553Z,6.20
2023-02-08T09:15:15.936Z,6.77
2023-02-08T09:17:44.353Z,6.00
2023-02-08T09:20:11.689Z,6.30
2023-02-08T09:22:38.660Z,6.03
2023-02-08T09:25:07.433Z,6.17
2023-02-08T09:27:34.964Z,6.03
2023-02-08T09:30:01.994Z,6.50
2023-02-08T09:32:34.178Z,6.47
2023-02-08T09:35:02.354Z,6.63
2023-02-08T09:37:29.286Z,6.43
2023-02-08T09:39:58.598Z,6.07
2023-02-08T09:42:32.596Z,6.47
2023-02-08T09:45:13.091Z,6.67
2023-02-08T09:47:45.581Z,6.47
2023-02-08T09:50:17.502Z,6.87
2023-02-08T09:52:49.315Z,6.63
2023-02-08T09:55:25.340Z,7.10
2023-02-08T09:57:56.028Z,6.87
2023-02-08T10:00:35.745Z,6.27
2023-02-08T10:03:05.584Z,7.53
2023-02-08T10:05:35.730Z,6.77
2023-02-08T10:08:02.859Z,7.90
2023-02-08T10:10:42.195Z,7.60
2023-02-08T10:13:25.701Z,7.40
2023-02-08T10:16:09.299Z,7.23
2023-02-08T10:18:46.562Z,7.00
2023-02-08T10:21:27.429Z,7.83
2023-02-08T10:24:15.940Z,7.77
2023-02-08T10:26:46.507Z,7.47
2023-02-08T10:29:27.988Z,7.40
2023-02-08T10:32:15.550Z,7.23
2023-02-08T10:34:47.761Z,7.83
2023-02-08T10:37:17.412Z,7.27
2023-02-08T10:39:45.510Z,8.40
2023-02-08T10:42:16.186Z,8.07
2023-02-08T10:44:57.972Z,8.27
2023-02-08T10:47:39.900Z,8.83
2023-02-08T10:50:19.044Z,7.80
2023-02-08T10:52:46.073Z,8.10
2023-02-08T10:55:15.090Z,8.43
2023-02-08T10:57:43.332Z,8.60
2023-02-08T11:00:18.003Z,11.60
2023-02-08T11:02:46.947Z,11.97
2023-02-08T11:05:20.677Z,8.33
2023-02-08T11:07:47.697Z,8.00
2023-02-08T11:10:25.208Z,8.00
2023-02-08T11:12:57.936Z,7.70
2023-02-08T11:15:27.129Z,8.60
2023-02-08T11:17:57.641Z,8.40
2023-02-08T11:20:32.538Z,8.60
2023-02-08T11:23:00.124Z,8.27
2023-02-08T11:25:35.726Z,8.90
2023-02-08T11:28:03.705Z,8.53
2023-02-08T11:30:30.740Z,8.63
2023-02-08T11:33:18.355Z,7.83
2023-02-08T11:36:11.887Z,8.17
2023-02-08T11:38:43.016Z,8.50
2023-02-08T11:41:16.334Z,7.30
2023-02-08T11:43:43.765Z,8.63
2023-02-08T11:46:11.094Z,10.10
2023-02-08T11:48:44.463Z,8.73
2023-02-08T11:51:23.750Z,8.07
2023-02-08T11:53:50.675Z,7.97
2023-02-08T11:56:19.906Z,8.73
2023-02-08T11:59:18.840Z,8.20
2023-02-08T12:01:46.069Z,8.50
2023-02-08T12:04:15.334Z,7.90
2023-02-08T12:07:17.601Z,8.23
2023-02-08T12:10:13.669Z,8.83
2023-02-08T12:13:03.475Z,9.00
2023-02-08T12:15:51.393Z,7.83
2023-02-08T12:18:44.733Z,9.00
2023-02-08T12:21:16.166Z,9.30
2023-02-08T12:23:55.784Z,8.67
2023-02-08T12:26:43.446Z,8.27
2023-02-08T12:29:35.753Z,9.00
2023-02-08T12:32:41.740Z,7.90
2023-02-08T12:36:02.804Z,7.93
2023-02-08T12:39:20.224Z,12.70
2023-02-08T12:42:04.302Z,8.47
2023-02-08T12:44:40.509Z,7.40
2023-02-08T12:47:21.510Z,8.87
2023-02-08T12:50:00.807Z,7.50
2023-02-08T12:52:36.151Z,7.37
2023-02-08T12:55:12.921Z,7.17
2023-02-08T12:57:43.132Z,7.70
2023-02-08T13:00:18.897Z,7.07
2023-02-08T13:02:57.545Z,8.23
2023-02-08T13:05:28.059Z,7.50
2023-02-08T13:08:02.945Z,7.30
2023-02-08T13:10:34.947Z,7.83
2023-02-08T13:13:11.944Z,7.77
2023-02-08T13:15:43.807Z,6.90
2023-02-08T13:18:15.794Z,6.80
2023-02-08T13:20:46.633Z,7.97
2023-02-08T13:23:20.884Z,8.20
2023-02-08T13:25:49.158Z,7.43
2023-02-08T13:28:21.076Z,7.50
2023-02-08T13:30:55.661Z,7.47
2023-02-08T13:33:36.120Z,7.00
2023-02-08T13:36:03.852Z,6.67
2023-02-08T13:38:33.317Z,6.20
2023-02-08T13:41:07.051Z,6.40
2023-02-08T13:43:40.418Z,7.10
2023-02-08T13:46:08.439Z,6.97
2023-02-08T13:48:44.936Z,6.80
2023-02-08T13:51:52.917Z,6.77
2023-02-08T13:54:20.187Z,6.60
2023-02-08T13:56:48.669Z,5.37
2023-02-08T13:59:35.312Z,5.60
2023-02-08T14:02:27.381Z,5.53
2023-02-08T14:05:14.088Z,5.37
2023-02-08T14:07:44.753Z,5.20
2023-02-08T14:10:24.891Z,5.00
2023-02-08T14:12:59.152Z,5.60
2023-02-08T14:15:31.180Z,5.23
2023-02-08T14:17:59.868Z,5.27
2023-02-08T14:20:32.114Z,5.87
2023-02-08T14:23:02.174Z,5.37
2023-02-08T14:25:39.544Z,5.10
2023-02-08T14:28:08.355Z,5.70
2023-02-08T14:30:38.869Z,5.67
2023-02-08T14:33:16.718Z,6.10
2023-02-08T14:35:52.205Z,5.40
2023-02-08T14:38:50.954Z,6.27
2023-02-08T14:41:44.330Z,5.80
2023-02-08T14:44:54.200Z,5.80
2023-02-08T14:47:55.496Z,5.30
2023-02-08T14:50:26.657Z,6.07
2023-02-08T14:53:00.096Z,4.57
2023-02-08T14:55:30.965Z,5.23
2023-02-08T14:58:00.988Z,5.13
2023-02-08T15:00:33.365Z,4.93
2023-02-08T15:03:03.742Z,5.47
2023-02-08T15:05:34.183Z,5.20
2023-02-08T15:08:02.058Z,4.73
2023-02-08T15:10:30.472Z,4.93
2023-02-08T15:13:02.368Z,5.83
2023-02-08T15:15:33.170Z,4.70
2023-02-08T15:18:02.573Z,4.60
2023-02-08T15:20:31.477Z,4.63
2023-02-08T15:23:00.841Z,5.10
2023-02-08T15:25:30.173Z,4.83
2023-02-08T15:27:59.084Z,4.60
2023-02-08T15:30:32.967Z,4.83
2023-02-08T15:33:02.295Z,4.50
2023-02-08T15:35:32.134Z,4.80
2023-02-08T15:37:59.582Z,4.50
2023-02-08T15:40:29.016Z,4.63
2023-02-08T15:43:02.170Z,4.70
2023-02-08T15:45:31.896Z,4.20
2023-02-08T15:48:01.568Z,4.97
2023-02-08T15:50:29.223Z,4.40
2023-02-08T15:52:59.926Z,4.40
2023-02-08T15:55:31.602Z,4.97
2023-02-08T15:58:00.882Z,5.37
2023-02-08T16:00:32.167Z,4.40
2023-02-08T16:03:02.463Z,4.97
2023-02-08T16:05:31.613Z,4.57
2023-02-08T16:08:00.162Z,4.53
2023-02-08T16:10:34.026Z,4.20
2023-02-08T16:13:04.797Z,4.87
2023-02-08T16:15:41.160Z,4.30
2023-02-08T16:18:39.191Z,5.50
2023-02-08T16:21:17.871Z,3.80
2023-02-08T16:23:51.160Z,4.10
2023-02-08T16:26:23.747Z,3.97
2023-02-08T16:28:57.241Z,4.30
2023-02-08T16:31:28.361Z,4.63
2023-02-08T16:34:04.683Z,4.67
2023-02-08T16:36:35.098Z,3.97
2023-02-08T16:39:46.951Z,4.20
2023-02-08T16:42:31.564Z,4.43
2023-02-08T16:45:14.466Z,4.33
2023-02-08T16:47:43.303Z,4.27
2023-02-08T16:50:13.864Z,4.30
2023-02-08T16:52:40.916Z,3.90
2023-02-08T16:55:14.666Z,4.90
2023-02-08T16:57:43.129Z,4.13
2023-02-08T17:00:19.793Z,4.13
2023-02-08T17:02:46.765Z,4.07
2023-02-08T17:05:15.707Z,4.00
2023-02-08T17:07:42.671Z,3.73
2023-02-08T17:10:17.031Z,4.47
2023-02-08T17:12:43.856Z,3.30
2023-02-08T17:15:10.728Z,4.03
2023-02-08T17:17:37.635Z,4.27
2023-02-08T17:20:07.101Z,3.93
2023-02-08T17:22:35.298Z,4.20
2023-02-08T17:25:02.172Z,4.77
2023-02-08T17:27:29.079Z,5.23
2023-02-08T17:29:56.056Z,4.70
2023-02-08T17:32:22.880Z,4.70
2023-02-08T17:34:49.786Z,4.70
2023-02-08T17:37:16.616Z,4.83
2023-02-08T17:39:44.807Z,4.70
2023-02-08T17:42:12.307Z,4.90
2023-02-08T17:44:39.501Z,5.07
2023-02-08T17:47:06.323Z,5.27
2023-02-08T17:49:33.268Z,4.90
2023-02-08T17:52:00.189Z,5.20
2023-02-08T17:54:27.068Z,5.90
2023-02-08T17:56:58.539Z,5.70
2023-02-08T17:59:25.472Z,5.47
2023-02-08T18:01:52.412Z,4.93
2023-02-08T18:04:19.232Z,4.90
2023-02-08T18:06:46.088Z,4.67
2023-02-08T18:09:13.114Z,4.83
2023-02-08T18:11:39.995Z,4.97
2023-02-08T18:14:09.136Z,5.20
2023-02-08T18:16:36.169Z,4.83
2023-02-08T18:19:03.412Z,5.00
2023-02-08T18:21:33.329Z,4.90
2023-02-08T18:24:01.176Z,5.60
2023-02-08T18:26:28.295Z,5.63
2023-02-08T18:28:55.257Z,5.27
2023-02-08T18:31:24.357Z,5.30
2023-02-08T18:33:52.261Z,5.37
2023-02-08T18:36:20.531Z,5.37
2023-02-08T18:38:49.488Z,5.50
2023-02-08T18:41:21.231Z,5.53
2023-02-08T18:43:48.996Z,6.37
2023-02-08T18:46:18.347Z,5.70
2023-02-08T18:48:47.639Z,6.00
2023-02-08T18:51:19.543Z,7.00
2023-02-08T18:53:48.206Z,6.97
2023-02-08T18:56:15.325Z,7.40
2023-02-08T18:58:42.164Z,6.43
2023-02-08T19:01:10.772Z,6.73
2023-02-08T19:03:38.109Z,6.73
2023-02-08T19:06:08.606Z,6.43
2023-02-08T19:08:37.564Z,7.63
2023-02-08T19:11:04.762Z,7.03
2023-02-08T19:13:32.171Z,7.10
2023-02-08T19:15:59.090Z,6.73
2023-02-08T19:18:25.987Z,6.97
2023-02-08T19:20:52.878Z,5.97
2023-02-08T19:23:21.170Z,6.30
2023-02-08T19:25:47.987Z,6.13
2023-02-08T19:28:14.918Z,6.90
2023-02-08T19:30:42.041Z,7.07
2023-02-08T19:33:08.989Z,5.80
2023-02-08T19:35:39.009Z,6.53
2023-02-08T19:38:06.070Z,6.87
2023-02-08T19:40:34.347Z,6.30
2023-02-08T19:43:01.191Z,6.67
2023-02-08T19:45:28.163Z,6.03
2023-02-08T19:47:55.118Z,6.50
2023-02-08T19:50:22.127Z,6.80
2023-02-08T19:52:49.048Z,7.23
2023-02-08T19:55:16.094Z,7.70
2023-02-08T19:57:44.330Z,7.17
2023-02-08T20:00:23.005Z,7.43
2023-02-08T20:02:50.948Z,8.33
2023-02-08T20:05:18.123Z,7.73
2023-02-08T20:07:44.946Z,7.80
2023-02-08T20:10:11.841Z,8.10
2023-02-08T20:12:38.753Z,7.33
2023-02-08T20:15:07.749Z,6.87
2023-02-08T20:17:34.565Z,7.10
2023-02-08T20:20:01.470Z,7.03
2023-02-08T20:22:28.582Z,7.20
2023-02-08T20:24:55.537Z,7.23
2023-02-08T20:27:22.387Z,7.63
2023-02-08T20:29:49.334Z,7.10
2023-02-08T20:32:18.442Z,7.40
2023-02-08T20:34:58.426Z,7.83
2023-02-08T20:37:26.366Z,8.67
2023-02-08T20:39:53.224Z,7.73
2023-02-08T20:42:20.147Z,7.33
2023-02-08T20:44:47.152Z,7.77
2023-02-08T20:47:16.366Z,8.17
2023-02-08T20:49:44.608Z,8.27
2023-02-08T20:52:11.804Z,8.93
2023-02-08T20:54:39.153Z,8.60
2023-02-08T20:57:06.177Z,8.47
2023-02-08T20:59:33.533Z,8.33
2023-02-08T21:02:00.584Z,8.10
2023-02-08T21:04:27.556Z,8.17
2023-02-08T21:06:55.798Z,7.83
2023-02-08T21:09:24.650Z,8.17
2023-02-08T21:11:51.963Z,7.90
2023-02-08T21:14:23.082Z,5.97
2023-02-08T21:16:52.014Z,7.53
2023-02-08T21:19:20.494Z,6.97
2023-02-08T21:21:50.655Z,7.53
2023-02-08T21:24:18.991Z,7.77
2023-02-08T21:26:45.901Z,7.77
2023-02-08T21:29:12.863Z,7.67
2023-02-08T21:31:39.831Z,11.30
2023-02-08T21:34:07.336Z,8.73
2023-02-08T21:36:34.561Z,8.00
2023-02-08T21:39:01.427Z,8.33
2023-02-08T21:41:31.321Z,8.23
2023-02-08T21:43:59.536Z,7.60
2023-02-08T21:46:30.006Z,8.20
2023-02-08T21:49:16.628Z,8.10
2023-02-08T21:52:02.258Z,8.67
2023-02-08T21:54:31.446Z,8.57
2023-02-08T21:57:00.798Z,7.80
2023-02-08T21:59:28.307Z,8.13
2023-02-08T22:01:55.226Z,7.87
2023-02-08T22:04:22.132Z,7.97
2023-02-08T22:06:49.155Z,7.93
2023-02-08T22:09:16.356Z,8.33
2023-02-08T22:11:43.318Z,7.87
2023-02-08T22:14:12.319Z,6.53
2023-02-08T22:16:39.463Z,7.77
2023-02-08T22:19:07.161Z,8.17
2023-02-08T22:21:34.543Z,8.53
2023-02-08T22:24:01.690Z,7.23
2023-02-08T22:26:30.569Z,7.83
2023-02-08T22:28:57.558Z,8.37
2023-02-08T22:31:25.889Z,7.80
2023-02-08T22:33:53.678Z,7.27
2023-02-08T22:36:21.208Z,9.07
2023-02-08T22:38:48.167Z,10.07
2023-02-08T22:41:17.164Z,10.87
2023-02-08T22:43:44.319Z,10.17
2023-02-08T22:46:11.351Z,10.03
2023-02-08T22:48:39.704Z,9.33
2023-02-08T22:51:07.926Z,9.97
2023-02-08T22:53:34.977Z,9.97
2023-02-08T22:56:01.869Z,10.10
2023-02-08T22:58:28.798Z,9.80
2023-02-08T23:00:55.720Z,9.27
2023-02-08T23:03:23.036Z,8.30
2023-02-08T23:05:52.122Z,8.93
2023-02-08T23:08:21.514Z,9.23
2023-02-08T23:10:48.635Z,8.60
2023-02-08T23:13:15.635Z,9.20
2023-02-08T23:15:44.491Z,9.30
2023-02-08T23:18:11.681Z,8.83
2023-02-08T23:20:40.363Z,9.87
2023-02-08T23:23:08.860Z,8.70
2023-02-08T23:25:39.714Z,9.57
2023-02-08T23:28:07.452Z,9.30
2023-02-08T23:30:34.343Z,8.70
2023-02-08T23:33:01.256Z,9.33
2023-02-08T23:35:28.121Z,9.98
2023-02-08T23:37:55.014Z,8.97
2023-02-08T23:40:23.411Z,9.63
2023-02-08T23:42:50.322Z,9.77
2023-02-08T23:45:17.290Z,10.17
2023-02-08T23:47:44.107Z,10.10
2023-02-08T23:50:11.398Z,8.80
2023-02-08T23:52:38.362Z,9.80
2023-02-08T23:55:06.210Z,10.43
2023-02-08T23:57:35.956Z,10.73
